Time;durP1;ratioP1;P1;durP2;ratioP2;P2;SDS_P1;SDS_P2;PMS_P1;PMS_P2;Temp;Humidity;BMP_temperature;BMP_pressure;BME280_temperature;BME280_humidity;BME280_pressure;Samples;Min_cycle;Max_cycle;Signal;HPM_P1;HPM_P2
2021/05/17 00:01:32;;;;;;;15.53;10.75;;;;;;;10.52;70.15;99192.77;128228;1101;22337;-77
2021/05/17 00:04:06;;;;;;;17.38;10.70;;;;;;;10.46;70.03;99199.66;128234;1101;22355;-77
2021/05/17 00:06:36;;;;;;;13.65;10.83;;;;;;;10.38;69.93;99206.91;128023;1101;22352;-77
2021/05/17 00:09:11;;;;;;;10.20;9.00;;;;;;;10.29;70.01;99207.05;128189;1101;22339;-78
2021/05/17 00:11:42;;;;;;;14.28;10.18;;;;;;;10.24;70.15;99196.24;128090;1100;22348;-77
2021/05/17 00:14:12;;;;;;;12.55;9.63;;;;;;;10.18;70.14;99190.92;128028;1099;22343;-78
2021/05/17 00:16:43;;;;;;;12.33;9.23;;;;;;;10.13;70.31;99194.15;128213;1100;24493;-78
2021/05/17 00:19:14;;;;;;;17.28;10.10;;;;;;;10.09;70.33;99193.70;128187;1099;24566;-79
2021/05/17 00:21:45;;;;;;;11.98;9.33;;;;;;;10.04;70.55;99188.20;128037;1101;22357;-77
2021/05/17 00:24:17;;;;;;;13.75;8.90;;;;;;;10.01;70.52;99190.41;128302;1099;24473;-76
2021/05/17 00:26:47;;;;;;;11.35;8.73;;;;;;;9.96;70.66;99182.23;128110;1101;24232;-77
2021/05/17 00:29:18;;;;;;;10.30;8.78;;;;;;;9.93;70.67;99178.19;128032;1100;24472;-78
2021/05/17 00:31:48;;;;;;;13.48;9.25;;;;;;;9.87;70.64;99181.58;128049;1103;22354;-77
2021/05/17 00:34:18;;;;;;;10.40;8.95;;;;;;;9.83;71.07;99181.16;127999;1103;22337;-77
2021/05/17 00:36:49;;;;;;;11.28;9.68;;;;;;;9.82;70.89;99182.14;128232;1101;22354;-77
2021/05/17 00:39:19;;;;;;;14.20;10.20;;;;;;;9.79;71.06;99182.52;128043;1102;22354;-77
2021/05/17 00:41:49;;;;;;;12.78;10.18;;;;;;;9.77;71.05;99179.27;128375;1101;22355;-77
2021/05/17 00:44:19;;;;;;;12.30;9.55;;;;;;;9.75;71.03;99177.83;128316;1100;22582;-77
2021/05/17 00:46:51;;;;;;;11.68;10.10;;;;;;;9.71;71.04;99174.76;128108;1101;22339;-77
2021/05/17 00:49:21;;;;;;;;;;;;;;;9.63;71.02;99185.45;128059;1101;22339;-76
2021/05/17 00:51:55;;;;;;;11.53;9.85;;;;;;;9.55;71.27;99181.11;127975;1101;23262;-77
2021/05/17 00:54:25;;;;;;;14.37;11.00;;;;;;;9.57;71.44;99180.94;127935;1101;22795;-76
2021/05/17 00:56:55;;;;;;;12.05;10.28;;;;;;;9.54;71.44;99181.31;127916;1103;22462;-78
2021/05/17 00:59:26;;;;;;;14.08;11.93;;;;;;;9.52;71.52;99178.04;128024;1104;22489;-77
2021/05/17 01:01:56;;;;;;;13.53;9.98;;;;;;;9.49;71.28;99173.14;127923;1104;22380;-78
2021/05/17 01:04:46;;;;;;;13.80;11.70;;;;;;;9.42;71.83;99171.26;128010;1104;22359;-79
2021/05/17 01:07:24;;;;;;;13.95;11.50;;;;;;;9.41;71.68;99174.91;127967;1105;22360;-77
2021/05/17 01:09:59;;;;;;;14.33;11.40;;;;;;;9.39;71.87;99171.63;128148;1102;22443;-77
2021/05/17 01:12:33;;;;;;;15.13;11.00;;;;;;;9.40;72.03;99180.38;128132;1101;22342;-79
2021/05/17 01:15:04;;;;;;;12.95;10.78;;;;;;;9.41;72.10;99172.27;128097;1101;22380;-77
2021/05/17 01:17:35;;;;;;;13.18;11.80;;;;;;;9.43;72.14;99167.64;128050;1102;22373;-78
2021/05/17 01:20:18;;;;;;;13.48;11.65;;;;;;;9.43;72.09;99161.56;128099;1102;22365;-78
2021/05/17 01:26:01;;;;;;;13.38;11.98;;;;;;;9.42;72.22;99160.72;128231;1101;22617;-79
2021/05/17 01:28:34;;;;;;;14.43;11.85;;;;;;;9.46;72.51;99157.70;128063;1102;23293;-78
2021/05/17 01:31:08;;;;;;;13.18;11.88;;;;;;;9.54;72.68;99160.22;128245;1101;22354;-78
2021/05/17 01:33:42;;;;;;;16.45;13.23;;;;;;;9.61;72.61;99155.81;128127;1100;24472;-79
2021/05/17 01:36:14;;;;;;;12.63;11.15;;;;;;;9.65;72.28;99149.95;128037;1101;24991;-78
2021/05/17 01:38:49;;;;;;;14.40;12.50;;;;;;;9.65;72.17;99159.70;128057;1101;22337;-78
2021/05/17 01:41:25;;;;;;;12.90;11.30;;;;;;;9.61;71.89;99156.63;128113;1102;22354;-78
2021/05/17 01:43:58;;;;;;;13.18;11.83;;;;;;;9.59;72.12;99152.54;128168;1101;22337;-77
2021/05/17 01:46:33;;;;;;;14.05;11.78;;;;;;;9.61;72.20;99156.63;128124;1100;24954;-77
2021/05/17 01:49:14;;;;;;;15.38;12.75;;;;;;;9.63;71.99;99159.09;128290;1101;22337;-76
2021/05/17 01:51:48;;;;;;;13.88;11.75;;;;;;;9.60;72.06;99162.10;128305;1101;22388;-76
2021/05/17 01:54:20;;;;;;;12.43;10.03;;;;;;;9.55;72.09;99157.38;128027;1099;22813;-77
2021/05/17 01:56:56;;;;;;;13.68;11.15;;;;;;;9.57;72.53;99152.75;127970;1101;24473;-76
2021/05/17 01:59:34;;;;;;;15.38;11.68;;;;;;;9.61;72.54;99167.17;127979;1101;24598;-76
2021/05/17 02:02:04;;;;;;;13.90;11.33;;;;;;;9.59;72.38;99166.53;127622;1101;22366;-77
2021/05/17 02:04:35;;;;;;;14.35;11.25;;;;;;;9.56;72.26;99161.67;128012;1104;22375;-77
2021/05/17 02:07:05;;;;;;;14.13;10.88;;;;;;;9.52;72.25;99157.77;127943;1101;22350;-77
2021/05/17 02:09:38;;;;;;;17.43;11.85;;;;;;;9.52;72.50;99159.59;128035;1104;22367;-77
2021/05/17 02:12:09;;;;;;;12.30;11.03;;;;;;;9.52;72.59;99160.40;127596;1108;22390;-77
2021/05/17 02:14:55;;;;;;;15.60;12.65;;;;;;;9.47;72.49;99173.34;127689;1101;24590;-77
2021/05/17 02:17:28;;;;;;;15.00;11.95;;;;;;;9.41;72.53;99177.55;127947;1104;22449;-79
2021/05/17 02:19:59;;;;;;;16.60;12.48;;;;;;;9.38;72.72;99185.83;127994;1102;25199;-78
2021/05/17 02:22:31;;;;;;;13.90;11.38;;;;;;;9.31;72.70;99179.68;127975;1104;22356;-77
2021/05/17 02:25:18;;;;;;;13.37;12.07;;;;;;;9.24;72.77;99178.80;128005;1101;24485;-77
2021/05/17 02:27:49;;;;;;;14.88;12.18;;;;;;;9.18;73.05;99169.82;128056;1104;22380;-78
2021/05/17 02:30:20;;;;;;;13.83;12.00;;;;;;;9.18;73.36;99172.45;128134;1101;22805;-77
2021/05/17 02:32:57;;;;;;;13.73;12.35;;;;;;;9.26;73.35;99175.97;128107;1100;22351;-77
2021/05/17 02:35:34;;;;;;;16.18;12.88;;;;;;;9.28;73.53;99179.24;128101;1101;22327;-78
2021/05/17 02:38:07;;;;;;;14.00;12.30;;;;;;;9.22;73.08;99185.26;128113;1101;22371;-77
2021/05/17 02:40:40;;;;;;;16.10;11.90;;;;;;;9.10;73.15;99174.41;128051;1101;24994;-77
2021/05/17 02:43:12;;;;;;;15.48;12.00;;;;;;;9.06;73.46;99178.40;128245;1101;22858;-77
2021/05/17 02:45:47;;;;;;;11.95;10.20;;;;;;;9.01;73.45;99194.77;128063;1102;22369;-76
2021/05/17 02:48:27;;;;;;;11.73;10.23;;;;;;;8.96;73.60;99194.50;128073;1100;24475;-77
2021/05/17 02:51:00;;;;;;;10.93;9.83;;;;;;;8.95;73.95;99200.78;128044;1101;23210;-77
2021/05/17 02:53:33;;;;;;;10.85;8.30;;;;;;;8.95;74.08;99195.52;128269;1099;24160;-77
2021/05/17 02:56:18;;;;;;;12.23;10.08;;;;;;;8.98;74.30;99189.88;128321;1101;22370;-77
2021/05/17 02:59:07;;;;;;;13.08;11.00;;;;;;;9.02;74.39;99185.86;128291;1101;22436;-77
2021/05/17 03:01:49;;;;;;;16.30;10.25;;;;;;;9.08;74.41;99187.75;128073;1100;22338;-77
2021/05/17 03:04:21;;;;;;;13.65;9.08;;;;;;;9.13;74.15;99179.28;128053;1101;22352;-76
2021/05/17 03:07:12;;;;;;;12.58;9.50;;;;;;;9.16;74.32;99179.75;128013;1104;22806;-77
2021/05/17 03:09:52;;;;;;;11.10;9.33;;;;;;;9.18;74.13;99176.91;127555;1107;22375;-77
2021/05/17 03:12:28;;;;;;;10.68;9.38;;;;;;;9.18;73.89;99184.82;127530;1107;22338;-77
2021/05/17 03:14:59;;;;;;;9.88;8.58;;;;;;;9.18;74.02;99184.82;127609;1104;24514;-77
2021/05/17 03:17:32;;;;;;;9.95;8.23;;;;;;;9.22;73.97;99187.89;127567;1105;23702;-76
2021/05/17 03:20:07;;;;;;;13.65;10.10;;;;;;;9.27;74.31;99188.97;127482;1108;22356;-77
2021/05/17 03:22:40;;;;;;;11.00;7.55;;;;;;;9.32;74.25;99198.94;127527;1108;22457;-77
2021/05/17 03:25:17;;;;;;;10.55;7.70;;;;;;;9.37;73.75;99209.75;127702;1104;22359;-77
2021/05/17 03:27:50;;;;;;;8.83;7.28;;;;;;;9.32;73.79;99196.30;127769;1101;22357;-78
2021/05/17 03:30:23;;;;;;;9.28;7.58;;;;;;;9.29;73.94;99213.30;128054;1103;23129;-78
2021/05/17 03:33:00;;;;;;;11.45;8.68;;;;;;;9.26;73.99;99218.95;128131;1101;22353;-78
2021/05/17 03:35:34;;;;;;;9.70;8.13;;;;;;;9.23;74.14;99208.80;128062;1100;22356;-78
2021/05/17 03:38:09;;;;;;;10.15;9.08;;;;;;;9.24;74.28;99210.42;128103;1101;22407;-76
2021/05/17 03:40:43;;;;;;;10.38;8.88;;;;;;;9.24;74.09;99218.33;128270;1101;22370;-77
2021/05/17 03:43:17;;;;;;;11.85;9.78;;;;;;;9.23;74.23;99213.23;128108;1101;22370;-77
2021/05/17 03:46:01;;;;;;;10.68;9.05;;;;;;;9.24;74.07;99220.16;128049;1099;24081;-77
2021/05/17 03:48:46;;;;;;;10.50;9.35;;;;;;;9.23;74.29;99219.34;128060;1103;23924;-78
2021/05/17 03:51:19;;;;;;;11.30;8.95;;;;;;;9.24;74.29;99223.60;128072;1101;22337;-77
2021/05/17 03:53:49;;;;;;;10.98;8.58;;;;;;;9.29;74.48;99225.66;127700;1105;22418;-77
2021/05/17 03:56:19;;;;;;;9.10;8.10;;;;;;;9.34;74.31;99233.84;128049;1101;25033;-77
2021/05/17 03:59:16;;;;;;;10.30;9.03;;;;;;;9.36;74.27;99232.66;127613;1101;24684;-78
2021/05/17 04:01:50;;;;;;;11.98;9.18;;;;;;;9.40;74.27;99219.92;127645;1105;22352;-78
2021/05/17 04:04:22;;;;;;;12.88;9.33;;;;;;;9.49;74.39;99217.95;127608;1105;23294;-78
2021/05/17 04:07:19;;;;;;;12.15;8.98;;;;;;;9.57;74.40;99226.57;127980;1104;22348;-78
2021/05/17 04:15:45;;;;;;;12.35;9.03;;;;;;;9.62;73.63;99218.08;128105;1099;24415;-77
2021/05/17 04:18:16;;;;;;;14.15;8.23;;;;;;;9.59;73.67;99219.27;128028;1101;23110;-77
2021/05/17 04:20:48;;;;;;;8.40;7.57;;;;;;;9.56;73.58;99214.40;128322;1101;22341;-76
2021/05/17 04:23:24;;;;;;;11.95;8.15;;;;;;;9.56;73.65;99219.67;128042;1102;22343;-77
2021/05/17 04:25:54;;;;;;;9.50;8.08;;;;;;;9.61;73.78;99216.46;128236;1101;22351;-76
2021/05/17 04:28:23;;;;;;;11.10;8.63;;;;;;;9.71;73.95;99216.95;127928;1101;22355;-78
2021/05/17 04:30:53;;;;;;;10.58;8.43;;;;;;;9.81;74.03;99216.63;127957;1101;22346;-76
2021/05/17 04:33:23;;;;;;;12.63;8.75;;;;;;;9.91;73.96;99217.12;127995;1103;22361;-76
2021/05/17 04:35:53;;;;;;;9.90;8.95;;;;;;;10.06;74.17;99217.02;127942;1101;22345;-77
2021/05/17 04:38:22;;;;;;;11.93;8.67;;;;;;;10.22;73.93;99216.72;127955;1104;22374;-77
2021/05/17 04:40:52;;;;;;;15.28;8.53;;;;;;;10.33;73.48;99210.14;127941;1104;23412;-76
2021/05/17 04:43:22;;;;;;;12.00;8.48;;;;;;;10.41;73.17;99227.64;127942;1104;22381;-78
2021/05/17 04:45:52;;;;;;;10.83;8.88;;;;;;;10.52;73.22;99241.10;127978;1100;24256;-76
2021/05/17 04:48:22;;;;;;;13.38;9.00;;;;;;;10.62;72.90;99235.47;128201;1099;24472;-76
2021/05/17 04:50:52;;;;;;;10.08;7.70;;;;;;;10.74;72.60;99241.84;128252;1101;22449;-76
2021/05/17 04:53:22;;;;;;;12.53;7.98;;;;;;;10.91;72.71;99237.04;128069;1099;24924;-76
2021/05/17 04:55:51;;;;;;;11.78;8.10;;;;;;;11.18;72.74;99243.23;128226;1099;22336;-78
2021/05/17 04:58:21;;;;;;;12.65;8.80;;;;;;;11.39;72.21;99241.45;128264;1101;22443;-78
2021/05/17 05:00:51;;;;;;;9.50;7.65;;;;;;;11.57;71.50;99244.35;128186;1101;23223;-76
2021/05/17 05:03:24;;;;;;;10.03;7.40;;;;;;;11.74;71.13;99245.59;128037;1101;22443;-76
2021/05/17 05:05:54;;;;;;;8.98;7.00;;;;;;;11.99;71.03;99237.07;128028;1100;22820;-76
2021/05/17 05:08:25;;;;;;;10.18;6.75;;;;;;;12.31;70.24;99243.37;127986;1104;22350;-76
2021/05/17 05:10:55;;;;;;;8.63;6.00;;;;;;;12.66;70.05;99235.97;127980;1101;24488;-77
2021/05/17 05:13:25;;;;;;;9.28;6.88;;;;;;;13.01;69.07;99237.47;127996;1101;22349;-76
2021/05/17 05:15:55;;;;;;;8.53;7.23;;;;;;;13.37;68.64;99235.06;127994;1105;22349;-76
2021/05/17 05:18:24;;;;;;;7.75;6.75;;;;;;;13.69;66.97;99237.70;128025;1104;22365;-77
2021/05/17 05:20:54;;;;;;;8.15;6.00;;;;;;;13.94;66.06;99231.62;128027;1104;22699;-77
2021/05/17 05:23:25;;;;;;;10.63;7.33;;;;;;;14.23;65.29;99230.12;127541;1105;24214;-77
2021/05/17 05:33:45;;;;;;;8.77;6.27;;;;;;;15.36;62.48;99248.30;127572;1107;22443;-76
2021/05/17 05:36:15;;;;;;;9.23;7.23;;;;;;;15.57;60.80;99244.31;127531;1104;24180;-77
2021/05/17 05:38:45;;;;;;;8.30;6.33;;;;;;;15.75;60.35;99252.25;127548;1104;22375;-75
2021/05/17 05:41:15;;;;;;;6.90;5.58;;;;;;;15.94;59.59;99252.98;127539;1107;22485;-76
2021/05/17 05:43:44;;;;;;;8.43;5.98;;;;;;;16.16;59.16;99257.74;127538;1104;24489;-76
2021/05/17 05:46:14;;;;;;;6.68;5.65;;;;;;;16.37;58.54;99254.52;127582;1107;22408;-76
2021/05/17 05:48:49;;;;;;;7.83;5.38;;;;;;;16.62;57.95;99250.78;127562;1108;22381;-75
2021/05/17 05:51:28;;;;;;;8.05;5.33;;;;;;;16.75;57.21;99261.23;127598;1105;24507;-77
2021/05/17 05:54:00;;;;;;;8.95;5.90;;;;;;;16.88;56.80;99260.97;127573;1107;22386;-77
2021/05/17 05:56:30;;;;;;;8.75;7.23;;;;;;;17.03;56.82;99260.48;127556;1107;22378;-77
2021/05/17 05:59:01;;;;;;;8.60;7.30;;;;;;;17.34;56.13;99263.75;127679;1104;22430;-77
2021/05/17 06:01:31;;;;;;;7.70;6.00;;;;;;;17.50;55.78;99254.97;128022;1104;22483;-77
2021/05/17 06:04:00;;;;;;;9.08;7.08;;;;;;;17.71;55.40;99258.80;128093;1101;22364;-76
2021/05/17 06:06:30;;;;;;;11.03;6.37;;;;;;;18.03;55.27;99256.44;128074;1101;22364;-78
2021/05/17 06:09:00;;;;;;;7.43;5.70;;;;;;;18.40;53.66;99255.11;128114;1102;22372;-77
2021/05/17 06:11:30;;;;;;;6.98;5.65;;;;;;;18.68;52.98;99244.25;128254;1101;22962;-78
2021/05/17 06:14:02;;;;;;;11.30;5.73;;;;;;;19.03;52.91;99249.28;128198;1098;22407;-77
2021/05/17 06:16:34;;;;;;;7.47;5.17;;;;;;;19.18;50.92;99266.56;128290;1098;24489;-77
2021/05/17 06:19:06;;;;;;;13.05;7.13;;;;;;;19.16;50.91;99258.80;128238;1098;24613;-76
2021/05/17 06:21:36;;;;;;;9.03;5.18;;;;;;;19.24;50.76;99260.22;128059;1101;24172;-77
2021/05/17 06:24:09;;;;;;;9.28;6.35;;;;;;;19.39;50.44;99256.88;127737;1107;22726;-78
2021/05/17 06:26:39;;;;;;;9.98;6.80;;;;;;;19.48;50.16;99250.02;127571;1105;22364;-77
2021/05/17 06:29:09;;;;;;;6.30;4.77;;;;;;;19.71;50.14;99249.73;127621;1107;22362;-76
2021/05/17 06:31:46;;;;;;;6.00;4.58;;;;;;;20.07;49.89;99247.35;127568;1107;23147;-77
2021/05/17 06:34:16;;;;;;;5.08;3.63;;;;;;;20.46;48.36;99239.03;127606;1103;22355;-77
2021/05/17 06:36:47;;;;;;;7.45;4.70;;;;;;;20.86;48.33;99233.08;127565;1105;22379;-77
2021/05/17 06:39:16;;;;;;;5.85;3.85;;;;;;;21.22;47.00;99235.86;127634;1105;22412;-77
2021/05/17 06:41:46;;;;;;;5.05;3.40;;;;;;;21.47;45.90;99243.22;128029;1101;23136;-78
2021/05/17 06:44:16;;;;;;;4.53;3.57;;;;;;;21.79;45.57;99240.30;127678;1104;22347;-78
2021/05/17 06:46:46;;;;;;;4.53;3.27;;;;;;;22.09;44.48;99239.48;128024;1101;22352;-76
2021/05/17 06:49:16;;;;;;;9.00;3.40;;;;;;;22.47;44.43;99239.98;128138;1101;22364;-78
2021/05/17 06:51:46;;;;;;;4.73;3.37;;;;;;;22.52;42.45;99248.02;128323;1098;22342;-77
2021/05/17 06:54:20;;;;;;;12.23;4.10;;;;;;;22.30;43.04;99244.86;128320;1101;22420;-77
2021/05/17 06:56:55;;;;;;;6.45;3.95;;;;;;;22.30;43.66;99242.97;128345;1101;22345;-78
2021/05/17 06:59:26;;;;;;;4.15;3.23;;;;;;;22.64;43.34;99244.23;128092;1104;22357;-77
2021/05/17 07:02:00;;;;;;;7.55;3.48;;;;;;;22.70;42.23;99243.14;127995;1104;22390;-79
2021/05/17 07:04:33;;;;;;;5.83;4.00;;;;;;;22.85;41.92;99239.58;128093;1104;22403;-77
2021/05/17 07:07:03;;;;;;;4.68;3.25;;;;;;;23.07;41.74;99241.95;128015;1100;24196;-78
2021/05/17 07:12:22;;;;;;;4.25;2.90;;;;;;;23.59;41.16;99229.76;128006;1104;22368;-78
2021/05/17 07:14:55;;;;;;;3.78;2.93;;;;;;;23.84;40.36;99224.20;127979;1104;22357;-78
2021/05/17 07:17:24;;;;;;;13.83;3.93;;;;;;;23.89;39.29;99223.34;128055;1101;22345;-77
2021/05/17 07:19:54;;;;;;;4.83;2.88;;;;;;;24.00;39.56;99224.89;128235;1101;23158;-76
2021/05/17 07:25:13;;;;;;;5.75;3.43;;;;;;;23.77;39.20;99220.23;128282;1101;22334;-77
2021/05/17 07:27:42;;;;;;;6.53;2.90;;;;;;;23.74;39.48;99221.59;128219;1101;23116;-77
2021/05/17 07:30:13;;;;;;;5.08;2.73;;;;;;;23.68;39.14;99223.52;128245;1101;22333;-76
2021/05/17 07:32:43;;;;;;;5.25;3.03;;;;;;;23.67;39.12;99229.17;128272;1100;23104;-76
2021/05/17 07:35:13;;;;;;;11.00;5.45;;;;;;;23.60;39.36;99226.00;128230;1101;22328;-76
2021/05/17 07:37:42;;;;;;;15.40;4.85;;;;;;;23.63;38.90;99217.34;128295;1098;22423;-76
2021/05/17 07:40:13;;;;;;;49.03;6.03;;;;;;;23.25;38.94;99208.97;128296;1098;24462;-76
2021/05/17 07:42:42;;;;;;;9.50;3.63;;;;;;;22.94;39.37;99209.14;128283;1101;22345;-77
2021/05/17 07:45:16;;;;;;;6.17;2.70;;;;;;;22.52;39.65;99210.34;128279;1097;24486;-76
2021/05/17 07:47:46;;;;;;;11.30;3.60;;;;;;;22.09;40.51;99214.45;128242;1101;22773;-76
2021/05/17 07:50:17;;;;;;;8.07;5.90;;;;;;;21.90;41.38;99229.55;128242;1098;22369;-77
2021/05/17 07:52:47;;;;;;;19.73;4.78;;;;;;;22.00;41.93;99253.73;128243;1101;22332;-76
2021/05/17 07:55:21;;;;;;;7.08;4.98;;;;;;;22.32;41.98;99261.52;128478;1101;22343;-77
2021/05/17 07:57:50;;;;;;;8.47;4.33;;;;;;;22.45;40.64;99276.30;127964;1104;22344;-76
2021/05/17 08:00:20;;;;;;;6.20;2.80;;;;;;;22.21;40.43;99262.63;128006;1104;22346;-77
2021/05/17 08:02:51;;;;;;;4.60;2.83;;;;;;;21.96;40.76;99256.16;128019;1103;22346;-75
2021/05/17 08:05:22;;;;;;;4.73;2.75;;;;;;;22.18;42.07;99247.02;128083;1104;22343;-77
2021/05/17 08:07:52;;;;;;;5.88;3.30;;;;;;;22.69;41.86;99239.66;128018;1104;22359;-76
2021/05/17 08:10:22;;;;;;;3.25;1.90;;;;;;;23.18;40.71;99228.13;127960;1104;22344;-76
2021/05/17 08:12:52;;;;;;;5.70;3.43;;;;;;;23.57;39.85;99226.55;128058;1101;22346;-76
2021/05/17 08:15:22;;;;;;;4.17;2.60;;;;;;;23.52;38.71;99213.09;128122;1104;22359;-77
2021/05/17 08:17:52;;;;;;;4.33;2.50;;;;;;;23.55;39.64;99217.94;128012;1104;22346;-76
2021/05/17 08:20:23;;;;;;;3.45;2.38;;;;;;;23.87;39.44;99228.23;128009;1104;22386;-76
2021/05/17 08:22:52;;;;;;;;;;;;;;;24.18;38.40;99234.95;128247;1101;22337;-76
2021/05/17 08:25:25;;;;;;;4.80;2.18;;;;;;;24.26;38.42;99222.75;128282;1098;23789;-76
2021/05/17 08:27:56;;;;;;;4.05;2.40;;;;;;;24.49;38.26;99221.20;128330;1101;22340;-77
2021/05/17 08:30:29;;;;;;;4.88;1.98;;;;;;;24.88;38.23;99220.97;128307;1101;22312;-76
2021/05/17 08:32:59;;;;;;;3.60;3.23;;;;;;;25.18;37.15;99235.20;128289;1098;23234;-77
2021/05/17 08:35:29;;;;;;;2.63;1.83;;;;;;;25.28;36.30;99237.77;128317;1101;23204;-76
2021/05/17 08:38:04;;;;;;;3.88;1.90;;;;;;;25.49;35.95;99240.16;128336;1097;22348;-77
2021/05/17 08:40:37;;;;;;;4.80;2.10;;;;;;;25.71;35.29;99234.16;128337;1101;22360;-76
2021/05/17 08:43:07;;;;;;;5.00;2.63;;;;;;;25.70;35.28;99224.45;128352;1101;22390;-77
2021/05/17 08:45:38;;;;;;;4.90;2.60;;;;;;;25.56;34.82;99229.81;128345;1097;24612;-76
2021/05/17 08:48:09;;;;;;;3.83;2.50;;;;;;;25.44;34.76;99227.54;128284;1101;23414;-77
2021/05/17 08:50:39;;;;;;;6.10;1.98;;;;;;;25.39;34.92;99224.09;128251;1098;22330;-77
2021/05/17 08:53:10;;;;;;;4.13;3.20;;;;;;;25.48;34.80;99225.85;128351;1101;23117;-76
2021/05/17 08:55:41;;;;;;;4.53;2.13;;;;;;;25.53;35.15;99227.69;128196;1097;22346;-76
2021/05/17 08:58:11;;;;;;;3.65;1.65;;;;;;;25.20;34.47;99232.23;128253;1098;24169;-77
2021/05/17 09:00:41;;;;;;;3.20;1.78;;;;;;;24.93;34.76;99228.22;127978;1104;22379;-76
2021/05/17 09:03:12;;;;;;;7.13;2.63;;;;;;;24.75;35.76;99226.28;127928;1101;22524;-78
2021/05/17 09:05:48;;;;;;;2.70;1.88;;;;;;;24.69;35.79;99228.22;127951;1104;22724;-75
2021/05/17 09:08:24;;;;;;;2.78;1.88;;;;;;;24.61;35.59;99232.38;127977;1104;22076;-76
2021/05/17 09:10:54;;;;;;;4.35;1.93;;;;;;;24.53;35.69;99221.42;128033;1104;22361;-76
2021/05/17 09:13:24;;;;;;;5.78;3.80;;;;;;;24.42;35.27;99215.31;127992;1101;24176;-77
2021/05/17 09:15:54;;;;;;;2.57;1.30;;;;;;;24.20;35.29;99207.70;127963;1101;22359;-76
2021/05/17 09:18:32;;;;;;;4.37;1.53;;;;;;;24.06;35.63;99209.44;128063;1101;22347;-76
2021/05/17 09:21:07;;;;;;;2.47;0.93;;;;;;;23.90;35.22;99214.19;128269;1101;23246;-77
2021/05/17 09:23:38;;;;;;;2.65;1.10;;;;;;;23.59;35.41;99213.58;128047;1104;23212;-76
2021/05/17 09:26:16;;;;;;;2.50;1.53;;;;;;;23.43;35.68;99216.41;127978;1104;22392;-77
2021/05/17 09:28:51;;;;;;;4.73;1.80;;;;;;;23.39;35.82;99223.45;127993;1103;22355;-76
2021/05/17 09:31:22;;;;;;;5.40;4.43;;;;;;;23.39;35.96;99223.45;128063;1104;22358;-77
2021/05/17 09:34:00;;;;;;;3.80;2.65;;;;;;;23.37;36.02;99211.33;127982;1101;22388;-76
2021/05/17 09:36:41;;;;;;;18.73;2.55;;;;;;;23.36;35.99;99204.31;128027;1104;22362;-77
2021/05/17 09:39:17;;;;;;;2.83;1.48;;;;;;;23.38;35.71;99205.64;128102;1104;22402;-75
2021/05/17 09:41:56;;;;;;;6.25;1.93;;;;;;;23.29;35.84;99212.70;128150;1101;23123;-76
2021/05/17 09:44:30;;;;;;;5.85;3.63;;;;;;;23.26;35.79;99202.52;128284;1101;22346;-77
2021/05/17 09:47:17;;;;;;;3.95;1.55;;;;;;;23.26;36.02;99197.13;128330;1101;22346;-77
2021/05/17 09:49:50;;;;;;;3.83;1.37;;;;;;;23.40;35.40;99197.30;128247;1100;22330;-76
2021/05/17 09:52:30;;;;;;;2.65;1.60;;;;;;;23.52;36.05;99200.42;128268;1098;22349;-77
2021/05/17 09:55:08;;;;;;;4.95;1.33;;;;;;;23.64;36.07;99190.09;128331;1098;22343;-76
2021/05/17 09:57:47;;;;;;;4.15;1.35;;;;;;;23.69;35.02;99189.27;128425;1098;24542;-77
2021/05/17 10:00:26;;;;;;;6.73;2.10;;;;;;;23.35;35.05;99198.12;128544;1101;22350;-77
2021/05/17 10:03:00;;;;;;;4.38;1.33;;;;;;;23.25;35.02;99208.97;128437;1098;22367;-77
2021/05/17 10:05:36;;;;;;;4.50;1.10;;;;;;;23.16;35.29;99197.19;128501;1101;23145;-76
2021/05/17 10:08:22;;;;;;;2.95;0.98;;;;;;;22.91;35.35;99200.78;128399;1098;23135;-77
2021/05/17 10:10:52;;;;;;;2.80;0.80;;;;;;;22.70;35.54;99200.08;128365;1098;24180;-75
2021/05/17 10:13:22;;;;;;;2.20;0.90;;;;;;;22.54;35.58;99196.63;128578;1101;22349;-76
2021/05/17 10:15:52;;;;;;;2.07;1.00;;;;;;;22.43;35.80;99198.55;128260;1098;22342;-76
2021/05/17 10:18:22;;;;;;;5.05;1.65;;;;;;;22.35;35.77;99191.02;128262;1101;22353;-76
2021/05/17 10:20:52;;;;;;;1.58;0.90;;;;;;;22.51;35.96;99195.28;128261;1098;22361;-76
2021/05/17 10:23:25;;;;;;;29.08;4.10;;;;;;;22.42;35.53;99198.81;128287;1098;22364;-76
2021/05/17 10:26:06;;;;;;;7.10;1.75;;;;;;;22.46;35.95;99189.94;128310;1098;25003;-77
2021/05/17 10:28:39;;;;;;;4.20;1.08;;;;;;;22.56;36.24;99189.09;128281;1101;22347;-75
2021/05/17 10:31:19;;;;;;;4.28;1.03;;;;;;;22.68;35.45;99186.88;128325;1098;24252;-76
2021/05/17 10:34:03;;;;;;;3.63;1.30;;;;;;;22.51;35.30;99191.80;128316;1101;22350;-76
2021/05/17 10:36:58;;;;;;;3.68;1.03;;;;;;;22.38;35.57;99195.06;128264;1098;22349;-75
2021/05/17 10:39:40;;;;;;;1.67;0.70;;;;;;;22.28;35.55;99191.31;128338;1101;23264;-75
2021/05/17 10:48:21;;;;;;;1.95;0.90;;;;;;;21.92;36.42;99195.11;128111;1104;22340;-76
2021/05/17 10:51:09;;;;;;;1.98;1.08;;;;;;;22.03;36.78;99202.11;128125;1103;22361;-76
2021/05/17 10:53:53;;;;;;;2.90;1.30;;;;;;;22.10;36.49;99189.19;128025;1104;22356;-75
2021/05/17 10:56:39;;;;;;;3.28;1.38;;;;;;;22.02;36.27;99195.09;127977;1104;22352;-76
2021/05/17 11:02:09;;;;;;;2.73;1.40;;;;;;;21.63;36.56;99200.25;128053;1104;22361;-76
2021/05/17 11:04:46;;;;;;;3.73;1.58;;;;;;;21.35;37.15;99192.41;128036;1104;22361;-76
2021/05/17 11:07:25;;;;;;;3.67;1.10;;;;;;;21.30;37.24;99188.89;128001;1104;22330;-76
2021/05/17 11:10:01;;;;;;;2.73;0.80;;;;;;;21.27;37.35;99197.48;128056;1101;24182;-77
2021/05/17 11:12:50;;;;;;;4.58;1.00;;;;;;;21.30;37.51;99199.64;128073;1104;22449;-77
2021/05/17 11:15:57;;;;;;;1.48;0.80;;;;;;;21.19;37.52;99193.42;128057;1104;22442;-75
2021/05/17 11:18:49;;;;;;;3.67;1.23;;;;;;;21.18;37.98;99193.70;128041;1101;22358;-78
2021/05/17 11:21:27;;;;;;;3.68;1.25;;;;;;;21.27;38.70;99200.17;127994;1100;24472;-77
2021/05/17 11:24:02;;;;;;;2.75;1.03;;;;;;;21.17;38.06;99200.95;128063;1101;22438;-77
2021/05/17 11:26:55;;;;;;;3.48;1.43;;;;;;;21.03;38.00;99205.22;128246;1101;22356;-77
2021/05/17 11:29:36;;;;;;;2.45;1.20;;;;;;;20.93;38.44;99199.83;128295;1101;22348;-77
2021/05/17 11:32:34;;;;;;;5.10;1.15;;;;;;;20.93;38.82;99205.19;128254;1098;24513;-77
2021/05/17 11:35:11;;;;;;;2.45;1.28;;;;;;;20.83;38.86;99201.40;128306;1098;22356;-77
2021/05/17 11:38:09;;;;;;;1.98;1.20;;;;;;;20.67;39.23;99194.35;128335;1101;22362;-76
2021/05/17 11:40:52;;;;;;;4.23;1.70;;;;;;;20.56;39.41;99193.51;128279;1101;22377;-76
2021/05/17 11:43:26;;;;;;;5.25;2.15;;;;;;;20.60;39.76;99197.27;128282;1101;22347;-76
2021/05/17 11:45:57;;;;;;;2.25;1.30;;;;;;;20.63;39.65;99196.75;128275;1101;22979;-76
2021/05/17 11:48:28;;;;;;;2.37;1.00;;;;;;;20.55;39.71;99202.61;128272;1098;24986;-77
2021/05/17 11:50:59;;;;;;;2.55;1.20;;;;;;;20.47;40.25;99203.08;128303;1101;22378;-77
2021/05/17 11:53:30;;;;;;;4.13;1.20;;;;;;;20.39;40.36;99206.24;128064;1101;22425;-77
2021/05/17 11:56:07;;;;;;;4.13;2.00;;;;;;;20.31;40.40;99204.06;128010;1100;22349;-76
2021/05/17 11:58:41;;;;;;;7.73;1.48;;;;;;;20.24;40.78;99208.85;128051;1104;22367;-77
2021/05/17 12:01:25;;;;;;;5.60;1.53;;;;;;;20.20;41.44;99214.73;127970;1104;22360;-77
2021/05/17 12:03:55;;;;;;;3.23;1.20;;;;;;;20.25;41.37;99221.98;127968;1104;22379;-76
2021/05/17 12:06:24;;;;;;;3.60;2.03;;;;;;;20.25;41.34;99219.30;127952;1104;22374;-76
2021/05/17 12:08:54;;;;;;;9.13;2.13;;;;;;;20.19;41.03;99228.38;127993;1100;24180;-76
2021/05/17 12:11:24;;;;;;;3.18;1.25;;;;;;;20.06;41.51;99240.38;128073;1101;23262;-77
2021/05/17 12:14:07;;;;;;;4.47;1.53;;;;;;;19.82;42.06;99239.09;128280;1098;24252;-77
2021/05/17 12:16:37;;;;;;;6.15;1.75;;;;;;;19.60;43.99;99245.33;128199;1101;22372;-76
2021/05/17 12:19:07;;;;;;;4.78;1.95;;;;;;;19.38;44.58;99249.91;128252;1101;22326;-76
2021/05/17 12:21:38;;;;;;;2.75;1.50;;;;;;;19.21;45.47;99258.84;128052;1104;22423;-76
2021/05/17 12:24:23;;;;;;;4.68;2.30;;;;;;;19.13;46.33;99253.14;128009;1101;24515;-75
2021/05/17 12:26:59;;;;;;;4.80;2.10;;;;;;;19.03;47.09;99251.16;127681;1105;22400;-76